Time;durP1;ratioP1;P1;durP2;ratioP2;P2;SDS_P1;SDS_P2;PMS_P1;PMS_P2;Temp;Humidity;BMP_temperature;BMP_pressure;BME280_temperature;BME280_humidity;BME280_pressure;Samples;Min_cycle;Max_cycle;Signal;HPM_P1;HPM_P2
2022/03/01 00:00:46;;;;;;;17.55;9.00;;;1.30;69.80;;;;;;5027696;28;20042;-86
2022/03/01 00:03:30;;;;;;;21.30;9.80;;;1.40;70.50;;;;;;5053803;28;20041;-86
2022/03/01 00:05:57;;;;;;;16.55;8.90;;;1.40;69.90;;;;;;5049821;28;20053;-86
2022/03/01 00:08:28;;;;;;;19.05;10.25;;;1.40;69.00;;;;;;5050116;28;20091;-86
2022/03/01 00:10:58;;;;;;;19.05;9.95;;;1.30;69.40;;;;;;5045775;28;20504;-86
2022/03/01 00:13:30;;;;;;;21.33;9.70;;;1.20;69.60;;;;;;5050485;28;20108;-86
2022/03/01 00:15:59;;;;;;;18.45;10.23;;;1.20;69.60;;;;;;5046148;28;20053;-86
2022/03/01 00:18:27;;;;;;;17.65;10.10;;;1.20;70.00;;;;;;5067785;28;20049;-86
2022/03/01 00:21:04;;;;;;;18.25;10.00;;;1.10;70.10;;;;;;5045969;28;20053;-85
2022/03/01 00:23:34;;;;;;;17.50;9.75;;;1.20;70.10;;;;;;5051218;28;20124;-86
2022/03/01 00:26:06;;;;;;;15.35;8.85;;;1.20;69.70;;;;;;5053399;28;20064;-86
2022/03/01 00:28:35;;;;;;;18.15;10.02;;;1.10;69.70;;;;;;5049003;28;20763;-86
2022/03/01 00:31:10;;;;;;;20.30;9.75;;;1.10;71.10;;;;;;5045740;28;20516;-86
2022/03/01 00:33:40;;;;;;;19.50;10.77;;;1.10;70.70;;;;;;5068602;28;20057;-86
2022/03/01 00:36:10;;;;;;;21.10;10.95;;;1.00;70.50;;;;;;5053450;28;20177;-85
2022/03/01 00:38:43;;;;;;;18.40;10.38;;;1.00;70.10;;;;;;5053712;28;20049;-86
2022/03/01 00:41:11;;;;;;;;;;;1.00;71.00;;;;;;5041588;28;20038;-86
2022/03/01 00:43:41;;;;;;;18.10;10.13;;;1.00;70.80;;;;;;5040071;28;19932;-86
2022/03/01 00:46:19;;;;;;;17.83;9.35;;;1.00;71.20;;;;;;5050195;28;20065;-86
2022/03/01 00:48:48;;;;;;;20.40;10.30;;;0.90;71.30;;;;;;5050172;28;20056;-86
2022/03/01 00:51:16;;;;;;;15.63;9.25;;;0.90;70.90;;;;;;5053381;28;20139;-86
2022/03/01 00:53:48;;;;;;;22.50;9.75;;;0.90;71.20;;;;;;5049080;28;20078;-86
2022/03/01 00:56:30;;;;;;;20.27;10.93;;;0.90;72.00;;;;;;5048536;28;20050;-86
2022/03/01 00:58:58;;;;;;;19.45;10.20;;;0.80;72.70;;;;;;5053907;28;20061;-86
2022/03/01 01:01:26;;;;;;;21.45;10.43;;;0.90;73.20;;;;;;5054175;28;20140;-86
2022/03/01 01:03:57;;;;;;;17.90;9.98;;;0.90;72.20;;;;;;5052546;28;20155;-86
2022/03/01 01:06:30;;;;;;;18.23;10.02;;;0.90;71.60;;;;;;5068622;28;20124;-86
2022/03/01 01:09:04;;;;;;;18.45;10.52;;;0.90;71.80;;;;;;5051966;28;20452;-86
2022/03/01 01:11:36;;;;;;;20.38;10.15;;;0.90;71.40;;;;;;5053429;28;20057;-86
2022/03/01 01:14:10;;;;;;;18.15;9.50;;;0.90;71.10;;;;;;5053656;28;20136;-86
2022/03/01 01:16:51;;;;;;;17.90;10.20;;;0.90;71.80;;;;;;5043249;28;20085;-86
2022/03/01 01:19:20;;;;;;;17.15;9.38;;;0.90;71.50;;;;;;5069085;28;20139;-86
2022/03/01 01:24:49;;;;;;;17.20;9.73;;;0.80;72.00;;;;;;5040918;28;20068;-86
2022/03/01 01:27:18;;;;;;;20.73;11.02;;;0.80;73.10;;;;;;5053767;28;20588;-85
2022/03/01 01:30:01;;;;;;;17.85;10.20;;;0.90;73.50;;;;;;5056071;28;20056;-85
2022/03/01 01:32:35;;;;;;;18.73;10.50;;;0.90;72.50;;;;;;5063489;28;20069;-85
2022/03/01 01:35:19;;;;;;;20.70;10.60;;;0.90;72.30;;;;;;5059644;28;20050;-85
2022/03/01 01:37:48;;;;;;;19.77;10.95;;;0.90;72.70;;;;;;5067083;28;20053;-86
2022/03/01 01:40:30;;;;;;;21.75;10.43;;;0.90;73.20;;;;;;5046623;28;20047;-86
2022/03/01 01:43:00;;;;;;;19.65;10.20;;;1.10;72.60;;;;;;5053519;28;20471;-86
2022/03/01 01:45:39;;;;;;;21.55;10.18;;;1.20;71.90;;;;;;5053625;28;20898;-86
2022/03/01 01:48:23;;;;;;;21.23;10.55;;;1.20;71.50;;;;;;5053868;28;20849;-86
2022/03/01 01:50:56;;;;;;;21.88;9.85;;;1.30;71.20;;;;;;5045399;28;20058;-86
2022/03/01 01:53:27;;;;;;;19.30;10.23;;;1.30;71.40;;;;;;5053808;28;20061;-86
2022/03/01 01:56:09;;;;;;;20.95;10.77;;;1.40;70.80;;;;;;5041907;28;20342;-86
2022/03/01 01:58:36;;;;;;;21.20;10.30;;;1.50;70.30;;;;;;5053217;28;20053;-86
2022/03/01 02:01:09;;;;;;;19.83;10.35;;;1.50;70.70;;;;;;5053775;28;20150;-86
2022/03/01 02:03:49;;;;;;;;;;;;;;;;;;;;;
2022/03/01 02:06:17;;;;;;;19.35;9.75;;;1.60;70.50;;;;;;5050019;28;20050;-86
2022/03/01 02:08:49;;;;;;;16.35;9.77;;;1.50;70.50;;;;;;5061831;28;20041;-86
2022/03/01 02:11:26;;;;;;;18.35;10.32;;;1.50;70.70;;;;;;5053546;28;20867;-86
2022/03/01 02:13:57;;;;;;;19.55;10.77;;;1.50;70.80;;;;;;5047460;28;20119;-85
2022/03/01 02:16:37;;;;;;;19.45;10.73;;;1.50;71.40;;;;;;5051333;28;20870;-86
2022/03/01 02:19:19;;;;;;;19.58;10.38;;;1.50;70.80;;;;;;5050128;28;20073;-86
2022/03/01 02:21:55;;;;;;;18.95;9.98;;;1.60;70.80;;;;;;5050778;28;20054;-86
2022/03/01 02:24:28;;;;;;;19.00;10.57;;;1.50;70.70;;;;;;5067395;28;20050;-86
2022/03/01 02:27:05;;;;;;;22.70;11.45;;;1.60;70.80;;;;;;5053554;28;20053;-86
2022/03/01 02:29:35;;;;;;;21.92;11.00;;;1.60;71.10;;;;;;5049624;28;20084;-86
2022/03/01 02:32:08;;;;;;;19.23;10.18;;;1.60;71.00;;;;;;5071668;28;20057;-86
2022/03/01 02:34:39;;;;;;;22.42;10.82;;;1.60;70.50;;;;;;5052031;28;20046;-86
2022/03/01 02:37:18;;;;;;;20.63;10.70;;;1.60;70.90;;;;;;5058247;28;20058;-85
2022/03/01 02:39:47;;;;;;;19.70;10.68;;;1.60;71.10;;;;;;5067104;28;20046;-86
2022/03/01 02:42:17;;;;;;;20.20;10.38;;;1.60;70.80;;;;;;5082465;28;20034;-86
2022/03/01 02:44:46;;;;;;;21.23;11.48;;;1.60;70.70;;;;;;5068290;28;20058;-86
2022/03/01 02:47:17;;;;;;;18.58;10.65;;;1.70;70.40;;;;;;5061384;28;20053;-86
2022/03/01 02:49:48;;;;;;;17.10;10.00;;;1.70;70.40;;;;;;5061742;28;20137;-86
2022/03/01 02:52:20;;;;;;;20.45;9.98;;;1.60;70.40;;;;;;5074755;28;20052;-87
2022/03/01 02:54:47;;;;;;;22.70;10.60;;;1.60;71.10;;;;;;5065433;28;20038;-86
2022/03/01 02:57:29;;;;;;;23.98;10.90;;;1.50;71.10;;;;;;5073369;28;20757;-86
2022/03/01 02:59:56;;;;;;;18.67;10.90;;;1.50;71.20;;;;;;5059717;28;20053;-86
2022/03/01 03:02:25;;;;;;;18.58;10.75;;;1.50;70.70;;;;;;5057148;28;20515;-86
2022/03/01 03:04:59;;;;;;;20.00;10.57;;;1.60;70.50;;;;;;5052789;28;20048;-86
2022/03/01 03:07:33;;;;;;;20.20;10.80;;;1.70;70.20;;;;;;5055518;28;20052;-86
2022/03/01 03:10:05;;;;;;;18.55;10.02;;;1.60;69.80;;;;;;5054995;28;20588;-86
2022/03/01 03:12:40;;;;;;;19.42;10.50;;;1.60;70.40;;;;;;5056834;28;20136;-86
2022/03/01 03:15:12;;;;;;;19.73;10.35;;;1.60;70.00;;;;;;5056246;28;20101;-86
2022/03/01 03:17:42;;;;;;;17.02;10.13;;;1.50;69.90;;;;;;5067917;28;20061;-86
2022/03/01 03:20:10;;;;;;;19.88;10.80;;;1.60;69.80;;;;;;5059623;28;20046;-86
2022/03/01 03:22:38;;;;;;;19.65;11.27;;;1.50;70.20;;;;;;5062575;28;20898;-86
2022/03/01 03:25:11;;;;;;;18.88;10.38;;;1.60;69.70;;;;;;5059681;28;20094;-86
2022/03/01 03:27:40;;;;;;;18.77;10.07;;;1.60;69.50;;;;;;5060565;28;20037;-86
2022/03/01 03:30:08;;;;;;;17.58;9.93;;;1.60;69.60;;;;;;5068500;28;20049;-86
2022/03/01 03:32:36;;;;;;;18.20;10.40;;;1.50;69.90;;;;;;5059593;28;20038;-86
2022/03/01 03:35:07;;;;;;;17.77;10.10;;;1.50;70.10;;;;;;5072907;28;20095;-87
2022/03/01 03:37:37;;;;;;;17.58;10.02;;;1.50;69.90;;;;;;5066861;28;20045;-86
2022/03/01 03:40:05;;;;;;;22.52;11.15;;;1.60;69.60;;;;;;5067075;28;20084;-86
2022/03/01 03:42:33;;;;;;;19.75;10.60;;;1.60;70.20;;;;;;5059610;28;20042;-86
2022/03/01 03:45:06;;;;;;;16.13;9.48;;;1.60;70.30;;;;;;5057649;28;20049;-86
2022/03/01 03:47:34;;;;;;;22.10;10.57;;;1.60;70.40;;;;;;5055638;28;20044;-86
2022/03/01 03:50:06;;;;;;;17.10;10.52;;;1.50;71.50;;;;;;5051849;28;20137;-86
2022/03/01 03:52:42;;;;;;;19.05;10.32;;;1.50;70.60;;;;;;5048825;28;20061;-86
2022/03/01 03:55:13;;;;;;;21.42;11.20;;;1.60;70.50;;;;;;5068457;28;20041;-86
2022/03/01 03:57:40;;;;;;;18.88;10.40;;;1.60;69.80;;;;;;5054094;28;20073;-86
2022/03/01 04:00:15;;;;;;;17.58;10.48;;;1.60;70.50;;;;;;5049515;28;20045;-86
2022/03/01 04:02:52;;;;;;;18.77;10.23;;;1.50;70.30;;;;;;5052918;28;20061;-86
2022/03/01 04:05:24;;;;;;;20.02;10.40;;;1.60;70.10;;;;;;5051826;28;20049;-86
2022/03/01 04:07:51;;;;;;;21.67;10.85;;;1.60;70.30;;;;;;5051809;28;20046;-86
2022/03/01 04:10:18;;;;;;;17.55;9.68;;;1.60;70.00;;;;;;5051471;28;20052;-86
2022/03/01 04:12:45;;;;;;;18.30;10.57;;;1.60;70.00;;;;;;5049114;28;20050;-86
2022/03/01 04:15:23;;;;;;;18.10;10.35;;;1.60;69.70;;;;;;5052358;28;20049;-86
2022/03/01 04:17:52;;;;;;;19.13;10.70;;;1.70;69.70;;;;;;5053402;28;20872;-86
2022/03/01 04:20:22;;;;;;;21.05;11.13;;;1.70;69.20;;;;;;5047143;28;20591;-86
2022/03/01 04:22:49;;;;;;;18.73;9.82;;;1.70;69.50;;;;;;5049425;28;20243;-86
2022/03/01 04:25:17;;;;;;;19.83;10.32;;;1.80;68.40;;;;;;5051768;28;20072;-86
2022/03/01 04:27:48;;;;;;;18.15;10.30;;;1.80;68.60;;;;;;5047966;28;20107;-86
2022/03/01 04:30:15;;;;;;;23.38;10.52;;;1.90;68.50;;;;;;5049383;28;20048;-86
2022/03/01 04:32:45;;;;;;;21.58;10.70;;;1.90;68.00;;;;;;5045787;28;20049;-86
2022/03/01 04:35:17;;;;;;;22.02;10.63;;;1.90;68.20;;;;;;5052156;28;22038;-86
2022/03/01 04:37:44;;;;;;;22.40;10.77;;;1.90;68.30;;;;;;5050305;28;20132;-86
2022/03/01 04:40:20;;;;;;;18.65;10.90;;;1.90;68.40;;;;;;5040897;28;20056;-86
2022/03/01 04:42:47;;;;;;;19.52;10.52;;;1.90;68.30;;;;;;5052552;28;20058;-85
2022/03/01 04:45:16;;;;;;;18.65;10.85;;;1.90;68.80;;;;;;5046136;28;20030;-86
2022/03/01 04:47:46;;;;;;;19.02;11.00;;;1.90;69.00;;;;;;5046519;28;20060;-86
2022/03/01 04:50:15;;;;;;;22.60;10.55;;;1.90;69.10;;;;;;5053335;28;20057;-86
2022/03/01 04:52:47;;;;;;;22.08;11.02;;;1.90;68.70;;;;;;5052374;28;20993;-86
2022/03/01 04:55:19;;;;;;;19.17;10.68;;;1.90;68.70;;;;;;5051685;28;20173;-86
2022/03/01 04:57:52;;;;;;;23.38;10.35;;;1.90;68.40;;;;;;5041212;28;20215;-86
2022/03/01 05:00:21;;;;;;;17.88;10.30;;;1.90;69.10;;;;;;5038415;28;20104;-86
2022/03/01 05:03:10;;;;;;;18.73;10.40;;;1.90;69.20;;;;;;5016683;28;20481;-86
2022/03/01 05:05:43;;;;;;;19.42;10.50;;;1.90;69.00;;;;;;5045547;28;20093;-86
2022/03/01 05:08:10;;;;;;;18.80;10.15;;;1.90;69.50;;;;;;5059872;28;20062;-86
2022/03/01 05:10:37;;;;;;;18.45;10.70;;;1.90;67.90;;;;;;5045930;28;20500;-86
2022/03/01 05:13:08;;;;;;;18.52;9.95;;;2.00;67.40;;;;;;5043990;28;20100;-86
2022/03/01 05:15:40;;;;;;;19.77;9.85;;;2.00;67.60;;;;;;5051227;28;20835;-86
2022/03/01 05:18:15;;;;;;;19.67;10.32;;;2.00;68.10;;;;;;5065707;28;20144;-86
2022/03/01 05:20:46;;;;;;;19.42;10.30;;;2.00;67.40;;;;;;5052587;28;20049;-86
2022/03/01 05:23:13;;;;;;;20.80;10.13;;;2.10;67.30;;;;;;5052374;28;20049;-86
2022/03/01 05:25:48;;;;;;;19.55;10.48;;;2.10;66.70;;;;;;5067607;28;20772;-86
2022/03/01 05:28:38;;;;;;;27.25;10.23;;;2.10;67.70;;;;;;5043263;28;20550;-86
2022/03/01 05:31:05;;;;;;;19.98;10.27;;;2.20;66.90;;;;;;5049967;28;20074;-86
2022/03/01 05:33:34;;;;;;;22.17;10.45;;;2.20;66.80;;;;;;5067405;28;20056;-85
2022/03/01 05:36:06;;;;;;;24.95;10.55;;;2.20;66.90;;;;;;5051770;28;20054;-86
2022/03/01 05:38:36;;;;;;;22.10;10.52;;;2.20;67.40;;;;;;5053006;28;20579;-86
2022/03/01 05:41:06;;;;;;;16.83;9.50;;;2.20;67.00;;;;;;5052331;28;20053;-86
2022/03/01 05:43:38;;;;;;;19.30;10.70;;;2.20;65.70;;;;;;5052470;28;20054;-86
2022/03/01 05:46:06;;;;;;;16.88;10.00;;;2.20;66.20;;;;;;5049074;28;20557;-86
2022/03/01 05:48:34;;;;;;;20.05;10.07;;;2.20;66.60;;;;;;5049328;28;21208;-86
2022/03/01 05:51:02;;;;;;;17.38;10.05;;;2.20;66.00;;;;;;5047225;28;20054;-86
2022/03/01 05:53:31;;;;;;;17.85;9.95;;;2.10;66.70;;;;;;5048532;28;20045;-86
2022/03/01 05:56:00;;;;;;;19.75;10.07;;;2.10;66.30;;;;;;5064946;28;20057;-86
2022/03/01 05:58:38;;;;;;;;;;;;;;;;;;;;;
2022/03/01 06:01:07;;;;;;;19.52;9.90;;;2.20;65.60;;;;;;5054658;28;20064;-86
2022/03/01 06:03:37;;;;;;;19.92;9.43;;;2.30;65.30;;;;;;5066147;28;20061;-86
2022/03/01 06:06:04;;;;;;;18.92;10.15;;;2.20;65.10;;;;;;5054059;28;20850;-86
2022/03/01 06:09:09;;;;;;;21.08;11.27;;;2.20;65.90;;;;;;5056319;28;20800;-86
2022/03/01 06:11:50;;;;;;;24.98;9.85;;;2.10;66.30;;;;;;5002697;28;20541;-86
2022/03/01 06:14:23;;;;;;;18.65;10.60;;;2.20;65.30;;;;;;4980469;28;20058;-86
2022/03/01 06:17:13;;;;;;;17.90;9.88;;;2.30;65.00;;;;;;4989736;28;20063;-86
2022/03/01 06:20:21;;;;;;;17.80;8.85;;;2.30;64.70;;;;;;5003064;28;20059;-86
2022/03/01 06:22:54;;;;;;;21.42;9.80;;;2.20;65.40;;;;;;4979086;28;20058;-86
2022/03/01 06:25:37;;;;;;;25.00;10.27;;;2.20;66.00;;;;;;4987202;28;20175;-85
2022/03/01 06:28:10;;;;;;;22.52;9.93;;;2.20;66.10;;;;;;4997270;28;20255;-86
2022/03/01 06:30:54;;;;;;;17.63;9.80;;;2.20;66.00;;;;;;4998168;28;20054;-86
2022/03/01 06:33:45;;;;;;;18.90;9.73;;;2.20;65.80;;;;;;4938575;28;20063;-86
2022/03/01 06:36:19;;;;;;;17.98;10.18;;;2.20;66.10;;;;;;4937502;28;20500;-86
2022/03/01 06:38:46;;;;;;;19.50;10.27;;;2.20;66.20;;;;;;4943896;28;20907;-86
2022/03/01 06:41:16;;;;;;;16.13;9.32;;;2.20;66.50;;;;;;4921556;28;20059;-86
2022/03/01 06:44:07;;;;;;;;;;;;;;;;;;;;;
2022/03/01 06:54:22;;;;;;;19.55;9.63;;;2.50;65.00;;;;;;5044570;28;20105;-86
2022/03/01 06:57:02;;;;;;;26.17;10.55;;;2.50;65.90;;;;;;5038124;28;20046;-86
2022/03/01 07:04:23;;;;;;;20.48;9.73;;;2.60;65.20;;;;;;4822934;29;20362;-86
2022/03/01 07:10:08;;;;;;;19.08;10.10;;;2.70;64.70;;;;;;4803862;29;20088;-87
2022/03/01 07:13:01;;;;;;;26.00;10.07;;;2.80;65.90;;;;;;4827923;29;20515;-86
2022/03/01 07:16:06;;;;;;;20.90;9.50;;;2.80;63.90;;;;;;4826765;29;20868;-86
2022/03/01 07:18:32;;;;;;;19.23;10.20;;;2.80;64.20;;;;;;4797497;29;20063;-86
2022/03/01 07:21:18;;;;;;;20.95;11.07;;;2.80;64.40;;;;;;4808272;29;20067;-86
2022/03/01 07:24:15;;;;;;;20.85;11.20;;;2.80;63.70;;;;;;4824615;29;20061;-86
2022/03/01 07:26:51;;;;;;;21.25;10.68;;;2.80;64.00;;;;;;4822772;29;20063;-86
2022/03/01 07:29:39;;;;;;;18.42;10.25;;;2.80;63.30;;;;;;4825584;29;20081;-85
2022/03/01 07:32:57;;;;;;;19.75;10.60;;;2.90;64.00;;;;;;4823310;29;20062;-86
2022/03/01 07:35:57;;;;;;;;;;;;;;;;;;;;;
2022/03/01 07:38:29;;;;;;;19.50;10.57;;;2.90;63.60;;;;;;4854457;29;20493;-86
2022/03/01 07:41:05;;;;;;;20.02;10.25;;;2.90;63.10;;;;;;4944900;28;20133;-86
2022/03/01 07:43:34;;;;;;;21.25;11.02;;;3.00;64.40;;;;;;5031433;28;20046;-86
2022/03/01 07:46:18;;;;;;;21.00;11.40;;;3.10;64.90;;;;;;5021321;28;20058;-86
2022/03/01 07:49:12;;;;;;;18.13;10.88;;;3.10;64.80;;;;;;5020991;28;20144;-86
2022/03/01 07:51:41;;;;;;;18.77;10.80;;;3.10;63.70;;;;;;5035165;28;20535;-87
2022/03/01 07:57:50;;;;;;;22.10;10.23;;;3.20;61.60;;;;;;5027397;28;20062;-86
2022/03/01 08:00:28;;;;;;;18.70;10.75;;;3.20;63.40;;;;;;5036108;28;20865;-86
2022/03/01 08:03:15;;;;;;;21.48;10.90;;;3.30;63.30;;;;;;5003779;28;20060;-86
2022/03/01 08:05:44;;;;;;;19.85;11.60;;;3.40;62.90;;;;;;5017886;28;20065;-86
2022/03/01 08:08:19;;;;;;;21.42;11.50;;;3.50;64.50;;;;;;5029528;28;20050;-86
2022/03/01 08:10:55;;;;;;;20.48;11.38;;;3.50;63.80;;;;;;5023641;28;20575;-86
2022/03/01 08:13:46;;;;;;;20.98;10.63;;;3.70;64.50;;;;;;5007998;28;20109;-85
2022/03/01 08:16:27;;;;;;;18.65;11.25;;;3.80;62.50;;;;;;5009504;28;20053;-86
2022/03/01 08:19:07;;;;;;;;;;;;;;;;;;;;;
2022/03/01 08:22:09;;;;;;;22.85;11.05;;;4.00;60.40;;;;;;5023610;28;20050;-86
2022/03/01 08:24:55;;;;;;;;;;;;;;;;;;;;;
2022/03/01 08:27:37;;;;;;;22.20;11.55;;;4.10;60.50;;;;;;5032367;28;20172;-87
2022/03/01 08:30:18;;;;;;;22.48;11.35;;;4.20;60.70;;;;;;5034336;28;20054;-87
2022/03/01 08:32:52;;;;;;;24.38;11.68;;;4.20;61.50;;;;;;5026044;28;20057;-87
2022/03/01 08:35:35;;;;;;;25.40;11.63;;;4.30;62.40;;;;;;5023083;28;20050;-87
2022/03/01 08:38:46;;;;;;;27.27;11.63;;;4.30;60.50;;;;;;5014702;28;20916;-86
2022/03/01 08:41:16;;;;;;;19.95;11.25;;;4.40;61.30;;;;;;5024251;28;20525;-86
2022/03/01 08:43:45;;;;;;;23.90;11.55;;;4.40;59.70;;;;;;5016145;28;20053;-87
2022/03/01 08:46:16;;;;;;;16.75;10.48;;;4.50;60.30;;;;;;5002685;28;20063;-86
2022/03/01 08:48:46;;;;;;;20.70;11.77;;;4.60;60.80;;;;;;5028293;28;20137;-87
2022/03/01 08:51:21;;;;;;;20.27;10.75;;;4.60;60.10;;;;;;5018675;28;20064;-86
2022/03/01 08:53:50;;;;;;;19.33;10.68;;;4.60;59.50;;;;;;5019654;28;20077;-87
2022/03/01 08:56:29;;;;;;;20.63;10.95;;;4.70;61.00;;;;;;5035665;28;20057;-87
2022/03/01 08:59:26;;;;;;;22.40;11.70;;;4.80;60.30;;;;;;5034766;28;20413;-86
2022/03/01 09:02:11;;;;;;;20.83;11.43;;;4.80;62.10;;;;;;5020928;28;20052;-86
2022/03/01 09:04:44;;;;;;;20.95;11.70;;;4.80;58.50;;;;;;5035615;28;20386;-87
2022/03/01 09:07:25;;;;;;;18.63;11.07;;;4.80;59.40;;;;;;5033803;28;20046;-87
2022/03/01 09:10:55;;;;;;;;;;;;;;;;;;;;;
2022/03/01 09:13:22;;;;;;;19.73;11.35;;;4.70;60.20;;;;;;5029090;28;20034;-87
2022/03/01 09:16:38;;;;;;;21.90;11.90;;;4.70;58.30;;;;;;4944591;28;20063;-87
2022/03/01 09:19:14;;;;;;;21.77;10.77;;;4.80;60.30;;;;;;4953493;28;20134;-87
2022/03/01 09:21:55;;;;;;;26.40;11.07;;;4.90;60.40;;;;;;4950605;28;20048;-87
2022/03/01 09:24:35;;;;;;;24.08;10.95;;;5.00;59.90;;;;;;4958400;28;20158;-87
2022/03/01 09:27:29;;;;;;;20.88;12.13;;;5.10;58.50;;;;;;4937490;28;20144;-87
2022/03/01 09:30:25;;;;;;;20.02;11.18;;;5.40;58.60;;;;;;4934401;28;20064;-87
2022/03/01 09:33:08;;;;;;;20.65;11.57;;;5.90;59.50;;;;;;4950355;28;20052;-87
2022/03/01 09:35:45;;;;;;;20.02;11.35;;;6.30;56.30;;;;;;5034061;28;20046;-87
2022/03/01 09:38:24;;;;;;;20.50;11.35;;;6.30;56.40;;;;;;5030309;28;20057;-87
2022/03/01 09:41:00;;;;;;;21.70;11.65;;;6.00;54.90;;;;;;5021863;28;20073;-87
2022/03/01 09:43:39;;;;;;;23.52;11.98;;;5.90;57.20;;;;;;5022311;28;20084;-86
2022/03/01 09:46:20;;;;;;;16.58;10.50;;;5.90;58.00;;;;;;5029696;28;20953;-87
2022/03/01 09:48:52;;;;;;;21.52;11.90;;;6.00;57.10;;;;;;5029129;28;20046;-87
2022/03/01 09:51:50;;;;;;;21.35;12.00;;;5.90;55.60;;;;;;5013984;28;20429;-87
2022/03/01 09:54:28;;;;;;;;;;;6.00;56.80;;;;;;5020280;28;20057;-87
2022/03/01 09:56:56;;;;;;;19.77;11.18;;;6.00;55.30;;;;;;5037075;28;20726;-87
2022/03/01 09:59:26;;;;;;;21.27;11.68;;;6.00;55.30;;;;;;5011698;28;20496;-87
2022/03/01 10:02:25;;;;;;;;;;;6.00;56.60;;;;;;4997873;28;20765;-86
2022/03/01 10:05:07;;;;;;;;;;;5.90;55.10;;;;;;5035390;28;19925;-87
2022/03/01 10:07:50;;;;;;;21.50;10.90;;;6.20;57.00;;;;;;5024524;28;19925;-87
2022/03/01 10:10:18;;;;;;;20.45;10.90;;;6.10;54.20;;;;;;5035763;28;20520;-87
2022/03/01 10:12:53;;;;;;;19.45;11.95;;;6.00;54.30;;;;;;5033868;28;20050;-87
2022/03/01 10:15:32;;;;;;;19.83;11.60;;;6.20;55.30;;;;;;5019573;28;20057;-86
2022/03/01 10:18:10;;;;;;;21.10;12.52;;;6.40;55.60;;;;;;5045120;28;20907;-86
2022/03/01 10:20:41;;;;;;;23.05;12.43;;;6.60;56.80;;;;;;5032396;28;20054;-86
2022/03/01 10:23:20;;;;;;;22.73;11.40;;;6.60;55.90;;;;;;5025193;28;20060;-86
2022/03/01 10:25:48;;;;;;;20.13;10.90;;;6.50;54.40;;;;;;5034044;28;20726;-86
2022/03/01 10:28:15;;;;;;;20.55;10.95;;;6.60;55.10;;;;;;5022392;28;20070;-86
2022/03/01 10:30:46;;;;;;;22.25;11.80;;;6.80;53.60;;;;;;5036292;28;20050;-86
2022/03/01 10:33:16;;;;;;;23.35;11.45;;;6.90;54.40;;;;;;5027300;28;20479;-86
2022/03/01 10:35:58;;;;;;;17.30;10.95;;;7.00;55.10;;;;;;5038132;28;20088;-86
2022/03/01 10:38:25;;;;;;;17.90;11.07;;;7.10;54.10;;;;;;5050114;28;20930;-86
2022/03/01 10:40:57;;;;;;;20.67;10.90;;;7.20;53.70;;;;;;5042356;28;20174;-86
2022/03/01 10:43:32;;;;;;;18.88;10.95;;;7.20;54.90;;;;;;5044429;28;20125;-86
2022/03/01 10:46:06;;;;;;;20.38;11.38;;;7.40;54.80;;;;;;5024383;28;20061;-86
2022/03/01 10:48:34;;;;;;;17.27;10.90;;;7.50;55.90;;;;;;5018036;28;20065;-86
2022/03/01 10:51:13;;;;;;;17.80;11.23;;;7.60;51.40;;;;;;5036591;28;20144;-86
2022/03/01 10:53:45;;;;;;;22.85;12.27;;;7.40;51.80;;;;;;5055350;28;20837;-86
2022/03/01 10:56:13;;;;;;;20.00;11.75;;;7.50;53.20;;;;;;5044686;28;20062;-86
2022/03/01 10:59:13;;;;;;;19.98;11.35;;;7.60;54.90;;;;;;5063623;28;20109;-87
2022/03/01 11:01:57;;;;;;;21.15;11.50;;;7.90;55.00;;;;;;5060045;28;20038;-86
2022/03/01 11:04:48;;;;;;;20.42;11.68;;;7.80;51.60;;;;;;5043969;28;20045;-86
2022/03/01 11:07:29;;;;;;;18.42;11.23;;;7.70;53.60;;;;;;5085199;28;20053;-87
2022/03/01 11:10:16;;;;;;;;;;;;;;;;;;;;;
2022/03/01 11:13:00;;;;;;;19.85;12.25;;;7.70;53.80;;;;;;5059246;28;20040;-88
2022/03/01 11:16:12;;;;;;;22.40;11.52;;;7.60;51.90;;;;;;5062540;28;20049;-87
2022/03/01 11:19:09;;;;;;;24.42;12.77;;;7.70;55.90;;;;;;5062168;28;20075;-87
2022/03/01 11:21:57;;;;;;;25.48;12.88;;;7.90;55.80;;;;;;5060004;28;20053;-87
2022/03/01 11:24:33;;;;;;;23.42;11.75;;;7.80;53.70;;;;;;5050769;28;20076;-86
2022/03/01 11:27:18;;;;;;;20.60;12.35;;;7.80;53.90;;;;;;5041528;28;20045;-87
2022/03/01 11:29:48;;;;;;;20.38;11.88;;;7.80;55.60;;;;;;5058444;28;20759;-87
2022/03/01 11:32:46;;;;;;;18.90;11.32;;;7.70;54.20;;;;;;5043822;28;20060;-86
2022/03/01 11:35:53;;;;;;;21.60;11.98;;;7.70;53.40;;;;;;5040772;28;20061;-86
2022/03/01 11:38:42;;;;;;;23.08;11.50;;;7.60;53.50;;;;;;5054614;28;20074;-86
2022/03/01 11:41:48;;;;;;;18.85;11.75;;;7.70;53.50;;;;;;5062255;28;20045;-86
2022/03/01 11:44:40;;;;;;;20.13;12.27;;;7.70;54.60;;;;;;5049947;28;20049;-87
2022/03/01 11:47:37;;;;;;;;;;;;;;;;;;;;;
2022/03/01 11:50:32;;;;;;;20.48;12.13;;;7.60;55.10;;;;;;5042020;28;20064;-87
2022/03/01 11:53:18;;;;;;;19.30;12.55;;;7.70;54.40;;;;;;5037891;28;20053;-87
2022/03/01 11:55:46;;;;;;;;;;;7.80;54.70;;;;;;5037840;28;20108;-87
2022/03/01 11:58:16;;;;;;;18.42;11.32;;;7.90;54.60;;;;;;5046698;28;19929;-87
2022/03/01 12:00:45;;;;;;;21.20;12.00;;;8.10;54.60;;;;;;5038091;28;20053;-87
2022/03/01 12:03:16;;;;;;;24.00;13.05;;;8.40;53.30;;;;;;5039637;28;20503;-87
2022/03/01 12:05:49;;;;;;;20.77;11.90;;;8.20;53.30;;;;;;5039981;28;20053;-87
2022/03/01 12:08:18;;;;;;;23.42;13.07;;;8.50;52.40;;;;;;5068430;28;20049;-87
2022/03/01 12:10:57;;;;;;;20.02;12.95;;;8.50;52.20;;;;;;5071233;28;20061;-87
2022/03/01 12:13:46;;;;;;;24.48;12.45;;;8.50;52.90;;;;;;5033964;28;20057;-87
2022/03/01 12:16:35;;;;;;;25.30;12.65;;;8.80;52.90;;;;;;5044858;28;20049;-87
2022/03/01 12:19:14;;;;;;;19.77;12.23;;;9.10;52.70;;;;;;5062140;28;20053;-87
2022/03/01 12:21:51;;;;;;;20.08;12.55;;;9.20;50.90;;;;;;5031575;28;20061;-87
2022/03/01 12:24:32;;;;;;;21.55;12.15;;;9.50;51.40;;;;;;5065595;28;20053;-87
2022/03/01 12:27:04;;;;;;;23.70;12.75;;;9.70;51.50;;;;;;5054612;28;20111;-87
2022/03/01 12:29:38;;;;;;;24.45;12.57;;;9.80;51.10;;;;;;5053852;28;20049;-87
2022/03/01 12:32:07;;;;;;;19.33;11.77;;;9.90;50.60;;;;;;5056866;28;20048;-87
2022/03/01 12:34:41;;;;;;;22.48;12.75;;;10.00;52.50;;;;;;5044995;28;20053;-87
2022/03/01 12:37:14;;;;;;;19.20;12.55;;;9.90;49.80;;;;;;5050922;28;20448;-86
2022/03/01 12:39:41;;;;;;;19.35;12.32;;;10.00;49.50;;;;;;5054616;28;20048;-87
2022/03/01 12:42:27;;;;;;;23.90;13.75;;;10.10;51.30;;;;;;5065587;28;20053;-86
2022/03/01 12:44:55;;;;;;;20.27;12.23;;;10.20;51.70;;;;;;5069293;28;20058;-86
2022/03/01 12:47:22;;;;;;;19.60;12.40;;;10.30;49.00;;;;;;5052354;28;20572;-86
2022/03/01 12:49:49;;;;;;;25.23;13.70;;;10.20;50.60;;;;;;5057600;28;20072;-86
2022/03/01 12:52:21;;;;;;;22.55;13.75;;;10.00;49.70;;;;;;5048656;28;20803;-87
2022/03/01 12:54:53;;;;;;;20.25;12.40;;;9.80;49.50;;;;;;5065221;28;20116;-87
2022/03/01 12:57:20;;;;;;;26.25;12.63;;;9.90;51.60;;;;;;5049120;28;20042;-87
2022/03/01 12:59:52;;;;;;;18.80;12.27;;;10.10;51.40;;;;;;5058180;28;20117;-87
2022/03/01 13:02:21;;;;;;;23.08;12.70;;;9.90;50.50;;;;;;5050632;28;20053;-87
2022/03/01 13:05:34;;;;;;;19.23;12.15;;;10.00;49.90;;;;;;5056965;28;20204;-85
2022/03/01 13:08:24;;;;;;;23.33;12.43;;;10.00;49.90;;;;;;4982037;28;20053;-87
2022/03/01 13:10:54;;;;;;;24.25;12.63;;;9.90;51.10;;;;;;5048183;28;20539;-87
2022/03/01 13:13:23;;;;;;;20.10;12.07;;;9.80;49.50;;;;;;5064144;28;20890;-87
2022/03/01 13:15:50;;;;;;;20.27;12.82;;;9.80;50.80;;;;;;5054223;28;20053;-87
2022/03/01 13:18:27;;;;;;;25.38;13.00;;;9.60;50.70;;;;;;5056778;28;20050;-87
2022/03/01 13:20:54;;;;;;;19.98;12.40;;;9.60;50.70;;;;;;5032064;28;20141;-86
2022/03/01 13:23:28;;;;;;;18.02;12.10;;;9.50;51.90;;;;;;5034065;28;20069;-86
2022/03/01 13:25:56;;;;;;;20.23;12.60;;;9.60;51.90;;;;;;5059749;28;20053;-87
2022/03/01 13:28:49;;;;;;;21.45;12.75;;;9.70;50.50;;;;;;5058254;28;20873;-87
2022/03/01 13:31:39;;;;;;;19.17;11.88;;;9.70;52.80;;;;;;5029614;28;20052;-86
2022/03/01 13:34:07;;;;;;;19.95;12.07;;;9.60;51.70;;;;;;5034920;28;20064;-87
2022/03/01 13:36:42;;;;;;;25.58;12.57;;;9.50;51.70;;;;;;5049913;28;20130;-87
2022/03/01 13:39:15;;;;;;;19.30;12.25;;;9.40;51.10;;;;;;5067377;28;20909;-87
2022/03/01 13:41:59;;;;;;;22.58;12.70;;;9.40;51.90;;;;;;5073796;28;20731;-87
2022/03/01 13:44:29;;;;;;;20.90;12.77;;;9.50;53.60;;;;;;5050329;28;20050;-87
2022/03/01 13:47:20;;;;;;;20.70;12.32;;;9.50;52.30;;;;;;5039404;28;20484;-87
2022/03/01 13:49:57;;;;;;;21.65;12.45;;;9.50;51.00;;;;;;5056260;28;20046;-87
2022/03/01 13:52:35;;;;;;;23.38;12.98;;;9.50;52.00;;;;;;5036795;28;20062;-87
2022/03/01 13:55:07;;;;;;;24.08;13.07;;;9.30;52.70;;;;;;5044494;28;20116;-87
2022/03/01 13:57:39;;;;;;;29.45;13.45;;;9.30;52.20;;;;;;5015157;28;20136;-87
2022/03/01 14:00:16;;;;;;;;;;;9.30;52.60;;;;;;5035535;28;20153;-87